Oakwood, OH (45873)

2:54 AM EDT on July 01, 2015 (GMT -0400)
Dan Halter farm | | Change Station
CLOSE
Current Station
Personal Weather Station
Location: Oakwood, OH
Elevation: 702 ft
Nearby Weather Stations
Active Advisory: Flood Warning Active Notice: Record Report

Elev 702 ft 41.11 °N, 84.40 °W | Updated 13 minutes ago

Clear
Clear
60.5 °F
Feels Like 60.5 °F
N
1.0
Wind Variable Wind from West
Gusts 3.0 mph

Today
High -- | Low -- °F
--% Chance of Precip.
Yesterday
High -- | Low -- °F
Precip. -- in
6:08 AM 9:13 PM
Waxing Gibbous, 99% visible
Pressure 29.84 in
Visibility 8.0 miles
Clouds Clear
Dew Point 59 °F
Humidity 94%
Rainfall 0.00 in
Snow Depth Not available.
UV 0 out of 12
Pollen 1.70 out of 12
Air Quality Not available.
Flu Activity Not available.
METAR KDFI 010553Z AUTO VRB03KT 8SM CLR 16/14 A2984 RMK AO2 SLP103 T01610144 10233 20161 50007

More Conditions Fewer Conditions

Pressure 29.84 in
Visibility 8.0 miles
Clouds Clear
Dew Point 59 °F
Humidity 94%
Rainfall 0.00 in
Snow Depth Not available.
UV 0 out of 12
Pollen 1.70 out of 12
Air Quality Not available.
Flu Activity Not available.
METAR KDFI 010553Z AUTO VRB03KT 8SM CLR 16/14 A2984 RMK AO2 SLP103 T01610144 10233 20161 50007

More Conditions Fewer Conditions

10-Day Weather Forecast

×

Almanac

Astronomy

Jul. 01, 2015 Rise Set
Actual Time
Civil Twilight
Nautical Twilight
Astronomical Twilight
Moon
Length of Visible Light
Length of Day
Tomorrow will be .
, % of the Moon is Illuminated

Today's Extremes

State Highs State Lows

Community

WunderPhotos

Upload Photos

1,834,162 photos uploaded!

WunderBlogs® & News

Nearby

Air Quality

  Air Quality AQ Index Pollutant
Not available.

Snow Depth

Station Depth Elevation

Earthquake Activity

City Distance Mag. Time & Date
Minimum magnitude displayed is 2.5.

Coastal Water Temperatures

Place Temperature

Stations

Nearby Weather Stations

Station Location Temp. Windchill Dew Point Humidity Wind Precip. Elev Updated Type
                   
Flood Warning
Statement as of 10:42 PM EDT on June 30, 2015

the Flood Warning has been extended for
the Maumee River at ft. Wayne
* until Thursday afternoon.
* At 10 PM Tuesday the stage was 18.8 feet and falling.
* Minor flooding is occurring and minor flooding is forecast.
* Flood stage is 17.0 feet.
* Forecast... the river will fall below the 17.0 foot flood stage
around 4 PM Wednesday July 1.
* At 19.0 feet... the city of Fort Wayne launches 24-hour flood fight.
* This crest compares to a previous crest of 18.7 feet which occurred
on Apr 29 2011.


Lat... Lon 4107 8513 4110 8511 4110 8505 4113 8495
      4111 8492 4106 8503